KCMH Airport Diagram

We have created a template for each of the higher traffic airports in the vZID airspace. They include KCMH, KCRW, KCVG, KDAY, KIND, KLEX and KSDF. You wil find usefull information including the airport diagram, weather, and specific airport procedures.

KCMH Weather

[Source: ADDS]
METAR
KCMH 241512Z 05005KT 3SM RA BR FEW007 BKN065 OVC080 08/08 A3013 RMK AO2 P0005 T00830078 $ =
TAF
KCMH 241136Z 2412/2512 01005KT P6SM -RA OVC012 FM241300 05008KT 5SM -RA OVC015 FM242000 08010KT P6SM VCSH OVC022 TEMPO 2501/2503 3SM -SHRA SCT012 OVC025 FM250300 17012KT P6SM SHRA VCTS SCT025 OVC050CB TEMPO 2504/2508 4SM -TSRA BKN025CB FM250800 21015G27KT P6SM SHRA VCTS SCT025 OVC060CB =

KCMH Operations

Calm wind runway(s) up to 10 kts: Arriving/Departing 28L/R

Typically, Rw 10R/28L for departures to the West and South and Rw 10L/28R for departures to the North and East.

FBOs: Lane Aviation midfield near Tower, Signature South of Twy B.

Advise ATC if you have updated scenery for KCMH.

JSN Epic template designed by JoomlaShine.com